createdAt,value
2023-04-16T00:00:00.144Z,92
2023-04-16T00:05:00.226Z,92
2023-04-16T00:10:00.148Z,92
2023-04-16T00:15:00.129Z,92
2023-04-16T00:20:00.138Z,92
2023-04-16T00:25:00.154Z,92
2023-04-16T00:30:00.135Z,92
2023-04-16T00:35:00.103Z,92
2023-04-16T00:40:00.142Z,92
2023-04-16T00:45:00.153Z,92
2023-04-16T00:50:00.124Z,92
2023-04-16T00:55:00.197Z,92
2023-04-16T01:00:00.140Z,92
2023-04-16T01:05:00.130Z,92
2023-04-16T01:10:00.180Z,92
2023-04-16T01:15:00.159Z,92
2023-04-16T01:20:00.179Z,92
2023-04-16T01:25:00.125Z,92
2023-04-16T01:30:00.109Z,92
2023-04-16T01:35:00.167Z,92
2023-04-16T01:40:00.153Z,92
2023-04-16T01:45:00.102Z,92
2023-04-16T01:50:00.180Z,92
2023-04-16T01:55:00.146Z,92
2023-04-16T02:00:00.176Z,92
2023-04-16T02:05:00.118Z,92
2023-04-16T02:10:00.133Z,92
2023-04-16T02:15:00.155Z,92
2023-04-16T02:20:00.133Z,92
2023-04-16T02:25:00.126Z,92
2023-04-16T02:30:00.157Z,92
2023-04-16T02:35:00.132Z,92
2023-04-16T02:40:00.159Z,92
2023-04-16T02:45:00.098Z,92
2023-04-16T02:50:00.108Z,92
2023-04-16T02:55:00.160Z,92
2023-04-16T03:00:00.099Z,92
2023-04-16T03:05:00.117Z,92
2023-04-16T03:10:00.102Z,92
2023-04-16T03:15:00.116Z,92
2023-04-16T03:20:00.168Z,92
2023-04-16T03:25:00.195Z,92
2023-04-16T03:30:00.148Z,92
2023-04-16T03:35:00.147Z,92
2023-04-16T03:40:00.142Z,92
2023-04-16T03:45:00.126Z,92
2023-04-16T03:50:00.139Z,92
2023-04-16T03:55:00.154Z,92
2023-04-16T04:00:00.170Z,91
2023-04-16T04:05:00.198Z,91
2023-04-16T04:10:00.163Z,91
2023-04-16T04:15:00.125Z,92
2023-04-16T04:20:01.690Z,92
2023-04-16T04:25:00.183Z,91
2023-04-16T04:30:00.145Z,91
2023-04-16T04:35:00.136Z,92
2023-04-16T04:40:00.161Z,91
2023-04-16T04:45:00.101Z,92
2023-04-16T04:50:00.152Z,92
2023-04-16T04:55:00.153Z,91
2023-04-16T05:00:00.159Z,92
2023-04-16T05:05:00.147Z,92
2023-04-16T05:10:00.136Z,92
2023-04-16T05:15:00.132Z,92
2023-04-16T05:20:00.127Z,91
2023-04-16T05:25:00.146Z,92
2023-04-16T05:30:00.122Z,91
2023-04-16T05:35:00.134Z,92
2023-04-16T05:40:00.203Z,92
2023-04-16T05:45:00.122Z,91
2023-04-16T05:50:00.134Z,91
2023-04-16T05:55:00.142Z,91
2023-04-16T06:00:00.162Z,91
2023-04-16T06:05:00.100Z,91
2023-04-16T06:10:00.134Z,91
2023-04-16T06:15:00.113Z,91
2023-04-16T06:20:00.117Z,91
2023-04-16T06:25:00.148Z,91
2023-04-16T06:30:00.164Z,91
2023-04-16T06:35:00.124Z,91
2023-04-16T06:40:00.117Z,91
2023-04-16T06:45:00.128Z,91
2023-04-16T06:50:00.138Z,91
2023-04-16T06:55:00.144Z,91
2023-04-16T07:00:00.144Z,91
2023-04-16T07:05:00.145Z,91
2023-04-16T07:10:00.133Z,90
2023-04-16T07:15:00.149Z,91
2023-04-16T07:20:00.136Z,91
2023-04-16T07:25:00.137Z,90
2023-04-16T07:30:00.151Z,90
2023-04-16T07:35:00.112Z,91
2023-04-16T07:40:00.176Z,90
2023-04-16T07:45:00.141Z,90
2023-04-16T07:50:00.144Z,90
2023-04-16T07:55:00.146Z,90
2023-04-16T08:00:00.123Z,90
2023-04-16T08:05:00.149Z,90
2023-04-16T08:10:00.115Z,90
2023-04-16T08:15:00.097Z,90
2023-04-16T08:20:00.137Z,90
2023-04-16T08:25:00.466Z,90
2023-04-16T08:30:00.176Z,90
2023-04-16T08:35:00.123Z,90
2023-04-16T08:40:00.155Z,90
2023-04-16T08:45:00.144Z,90
2023-04-16T08:50:00.157Z,89
2023-04-16T08:55:00.112Z,90
2023-04-16T09:00:00.123Z,89
2023-04-16T09:05:00.171Z,90
2023-04-16T09:10:00.146Z,89
2023-04-16T09:15:00.131Z,89
2023-04-16T09:20:00.127Z,89
2023-04-16T09:25:00.131Z,89
2023-04-16T09:30:00.148Z,88
2023-04-16T09:35:00.176Z,88
2023-04-16T09:40:00.122Z,89
2023-04-16T09:45:02.002Z,88
2023-04-16T09:50:00.181Z,88
2023-04-16T09:55:00.147Z,88
2023-04-16T10:00:00.146Z,87
2023-04-16T10:05:00.140Z,88
2023-04-16T10:10:00.176Z,87
2023-04-16T10:15:00.207Z,87
2023-04-16T10:20:00.157Z,87
2023-04-16T10:25:00.105Z,88
2023-04-16T10:30:00.186Z,87
2023-04-16T10:35:00.132Z,87
2023-04-16T10:40:00.168Z,88
2023-04-16T10:45:00.140Z,88
2023-04-16T10:50:00.146Z,88
2023-04-16T10:55:00.138Z,87
2023-04-16T11:00:00.160Z,87
2023-04-16T11:05:00.277Z,86
2023-04-16T11:10:00.295Z,86
2023-04-16T11:15:00.130Z,86
2023-04-16T11:20:00.169Z,86
2023-04-16T11:25:00.160Z,86
2023-04-16T11:30:00.108Z,85
2023-04-16T11:35:00.129Z,84
2023-04-16T11:40:00.183Z,84
2023-04-16T11:45:00.104Z,84
2023-04-16T11:50:00.099Z,84
2023-04-16T11:55:00.102Z,83
2023-04-16T12:00:02.701Z,82
2023-04-16T12:05:00.157Z,82
2023-04-16T12:10:00.175Z,82
2023-04-16T12:15:00.213Z,81
2023-04-16T12:20:00.144Z,82
2023-04-16T12:25:00.117Z,81
2023-04-16T12:30:00.139Z,81
2023-04-16T12:35:00.111Z,81
2023-04-16T12:40:00.149Z,81
2023-04-16T12:45:00.129Z,82
2023-04-16T12:50:00.138Z,83
2023-04-16T12:55:00.123Z,84
2023-04-16T13:00:00.120Z,84
2023-04-16T13:05:00.243Z,84
2023-04-16T13:10:00.123Z,84
2023-04-16T13:15:00.143Z,85
2023-04-16T13:20:00.174Z,85
2023-04-16T13:25:00.155Z,85
2023-04-16T13:30:00.150Z,85
2023-04-16T13:35:00.137Z,84
2023-04-16T13:40:00.122Z,84
2023-04-16T13:45:00.120Z,85
2023-04-16T13:50:00.126Z,85
2023-04-16T13:55:00.334Z,84
2023-04-16T14:00:00.144Z,85
2023-04-16T14:05:00.093Z,85
2023-04-16T14:10:00.139Z,85
2023-04-16T14:15:00.132Z,85
2023-04-16T14:20:00.175Z,85
2023-04-16T14:25:00.127Z,85
2023-04-16T14:30:00.128Z,85
2023-04-16T14:35:00.152Z,84
2023-04-16T14:40:00.164Z,84
2023-04-16T14:45:00.122Z,84
2023-04-16T14:50:00.123Z,84
2023-04-16T14:55:00.125Z,83
2023-04-16T15:00:00.157Z,83
2023-04-16T15:05:00.142Z,83
2023-04-16T15:10:00.125Z,83
2023-04-16T15:15:00.134Z,84
2023-04-16T15:20:00.121Z,84
2023-04-16T15:25:00.137Z,84
2023-04-16T15:30:00.127Z,84
2023-04-16T15:35:00.254Z,84
2023-04-16T15:40:00.168Z,84
2023-04-16T15:45:00.135Z,84
2023-04-16T15:50:00.163Z,84
2023-04-16T15:55:02.245Z,84
2023-04-16T16:00:06.951Z,84
2023-04-16T16:05:00.220Z,85
2023-04-16T16:10:00.276Z,85
2023-04-16T16:15:00.205Z,85
2023-04-16T16:20:00.152Z,85
2023-04-16T16:25:00.142Z,85
2023-04-16T16:30:00.168Z,85
2023-04-16T16:35:00.122Z,85
2023-04-16T16:40:00.147Z,85
2023-04-16T16:45:00.131Z,85
2023-04-16T16:50:02.177Z,85
2023-04-16T16:55:00.103Z,85
2023-04-16T17:00:00.200Z,85
2023-04-16T17:05:00.128Z,85
2023-04-16T17:10:03.011Z,85
2023-04-16T17:15:00.108Z,85
2023-04-16T17:20:00.200Z,85
2023-04-16T17:25:00.134Z,85
2023-04-16T17:30:00.185Z,85
2023-04-16T17:35:00.138Z,86
2023-04-16T17:40:00.146Z,85
2023-04-16T17:45:00.150Z,85
2023-04-16T17:50:00.120Z,86
2023-04-16T17:55:00.125Z,86
2023-04-16T18:00:00.129Z,86
2023-04-16T18:05:00.186Z,86
2023-04-16T18:10:00.154Z,86
2023-04-16T18:15:00.118Z,87
2023-04-16T18:20:00.148Z,87
2023-04-16T18:25:00.118Z,87
2023-04-16T18:30:00.130Z,86
2023-04-16T18:35:00.110Z,87
2023-04-16T18:40:00.172Z,86
2023-04-16T18:45:00.129Z,87
2023-04-16T18:50:00.163Z,87
2023-04-16T18:55:00.131Z,87
2023-04-16T19:00:00.142Z,87
2023-04-16T19:05:00.130Z,87
2023-04-16T19:10:00.131Z,87
2023-04-16T19:15:00.148Z,86
2023-04-16T19:20:00.152Z,87
2023-04-16T19:25:00.139Z,87
2023-04-16T19:30:00.206Z,87
2023-04-16T19:35:00.113Z,87
2023-04-16T19:40:00.155Z,87
2023-04-16T19:45:00.129Z,87
2023-04-16T19:50:00.168Z,87
2023-04-16T19:55:00.151Z,87
2023-04-16T20:00:00.169Z,87
2023-04-16T20:05:00.150Z,87
2023-04-16T20:10:00.141Z,87
2023-04-16T20:15:00.136Z,87
2023-04-16T20:20:00.151Z,87
2023-04-16T20:25:00.162Z,87
2023-04-16T20:30:00.435Z,86
2023-04-16T20:35:00.165Z,86
2023-04-16T20:40:00.100Z,87
2023-04-16T20:45:00.135Z,87
2023-04-16T20:50:00.143Z,87
2023-04-16T20:55:00.154Z,87
2023-04-16T21:00:00.169Z,87
2023-04-16T21:05:00.154Z,87
2023-04-16T21:10:00.178Z,87
2023-04-16T21:15:00.125Z,87
2023-04-16T21:20:00.126Z,87
2023-04-16T21:25:00.160Z,87
2023-04-16T21:30:00.116Z,86
2023-04-16T21:35:00.147Z,86
2023-04-16T21:40:00.214Z,86
2023-04-16T21:45:00.114Z,86
2023-04-16T21:50:00.118Z,86
2023-04-16T21:55:00.160Z,86
2023-04-16T22:00:00.144Z,86
2023-04-16T22:05:00.164Z,86
2023-04-16T22:10:00.150Z,87
2023-04-16T22:15:02.842Z,87
2023-04-16T22:20:00.120Z,87
2023-04-16T22:25:00.136Z,87
2023-04-16T22:30:00.186Z,87
2023-04-16T22:35:00.165Z,87
2023-04-16T22:40:00.171Z,87
2023-04-16T22:45:00.151Z,87
2023-04-16T22:50:00.135Z,87
2023-04-16T22:55:00.144Z,87
2023-04-16T23:00:00.141Z,87
2023-04-16T23:05:00.131Z,87
2023-04-16T23:10:00.213Z,87
2023-04-16T23:15:00.121Z,87
2023-04-16T23:20:00.146Z,87
2023-04-16T23:25:00.123Z,87
2023-04-16T23:30:00.177Z,87
2023-04-16T23:35:00.132Z,87
2023-04-16T23:40:00.143Z,87
2023-04-16T23:45:00.089Z,88
2023-04-16T23:50:00.188Z,88
2023-04-16T23:55:00.161Z,88
